Time;durP1;ratioP1;P1;durP2;ratioP2;P2;SDS_P1;SDS_P2;PMS_P1;PMS_P2;Temp;Humidity;BMP_temperature;BMP_pressure;BME280_temperature;BME280_humidity;BME280_pressure;Samples;Min_cycle;Max_cycle;Signal;HPM_P1;HPM_P2
2024/01/28 00:00:14;;;;;;;;;;;2.30;99.90;;;;;;5062257;28;20270;-77
2024/01/28 00:02:40;;;;;;;;;;;2.30;99.90;;;;;;5065385;28;19934;-77
2024/01/28 00:05:09;;;;;;;;;;;2.30;99.90;;;;;;5063738;28;20006;-78
2024/01/28 00:07:36;;;;;;;;;;;2.20;99.90;;;;;;5062433;28;19932;-76
2024/01/28 00:10:02;;;;;;;;;;;2.20;99.90;;;;;;5058377;28;20283;-77
2024/01/28 00:12:29;;;;;;;;;;;2.20;99.90;;;;;;5063393;28;20278;-77
2024/01/28 00:14:56;;;;;;;;;;;2.30;99.90;;;;;;5063714;28;19935;-77
2024/01/28 00:17:22;;;;;;;;;;;2.30;99.90;;;;;;5061368;28;19933;-76
2024/01/28 00:19:49;;;;;;;;;;;2.20;99.90;;;;;;5067098;28;19925;-77
2024/01/28 00:22:17;;;;;;;;;;;2.20;99.90;;;;;;5061769;28;19928;-76
2024/01/28 00:24:43;;;;;;;;;;;2.20;99.90;;;;;;5063526;28;20456;-77
2024/01/28 00:27:10;;;;;;;;;;;2.20;99.90;;;;;;5059751;28;19933;-77
2024/01/28 00:29:36;;;;;;;;;;;2.20;99.90;;;;;;5060721;28;19933;-77
2024/01/28 00:32:03;;;;;;;;;;;2.20;99.90;;;;;;5059141;28;20455;-76
2024/01/28 00:34:30;;;;;;;;;;;2.20;99.90;;;;;;5060567;28;20740;-77
2024/01/28 00:36:56;;;;;;;;;;;2.20;99.90;;;;;;5063606;28;19935;-76
2024/01/28 00:39:24;;;;;;;;;;;2.20;99.90;;;;;;5061948;28;19943;-77
2024/01/28 00:41:51;;;;;;;;;;;2.10;99.90;;;;;;5065834;28;19932;-76
2024/01/28 00:44:19;;;;;;;;;;;2.10;99.90;;;;;;5071174;28;20522;-76
2024/01/28 00:46:45;;;;;;;;;;;2.10;99.90;;;;;;5065234;28;19929;-75
2024/01/28 00:49:12;;;;;;;;;;;2.10;99.90;;;;;;5065009;28;19978;-77
2024/01/28 00:51:38;;;;;;;;;;;2.10;99.90;;;;;;5063200;28;19978;-78
2024/01/28 00:54:05;;;;;;;;;;;2.10;99.90;;;;;;5062300;28;19932;-76
2024/01/28 00:56:33;;;;;;;;;;;2.10;99.90;;;;;;5060269;28;20405;-76
2024/01/28 00:59:00;;;;;;;;;;;2.10;99.90;;;;;;5063482;28;19932;-77
2024/01/28 01:01:26;;;;;;;;;;;2.10;99.90;;;;;;5064088;28;19928;-76
2024/01/28 01:03:53;;;;;;;;;;;2.00;99.90;;;;;;5065310;28;20595;-76
2024/01/28 01:06:19;;;;;;;;;;;2.00;99.90;;;;;;5060324;28;19932;-76
2024/01/28 01:08:46;;;;;;;;;;;2.00;99.90;;;;;;5061390;28;19928;-76
2024/01/28 01:11:13;;;;;;;;;;;2.00;99.90;;;;;;5061192;28;19935;-76
2024/01/28 01:13:41;;;;;;;;;;;2.00;99.90;;;;;;5064861;28;19932;-76
2024/01/28 01:16:07;;;;;;;;;;;2.00;99.90;;;;;;5063864;28;20007;-76
2024/01/28 01:18:34;;;;;;;;;;;2.00;99.90;;;;;;5065887;28;20023;-77
2024/01/28 01:21:00;;;;;;;;;;;2.00;99.90;;;;;;5064592;28;19951;-76
2024/01/28 01:23:27;;;;;;;;;;;2.00;99.90;;;;;;5061879;28;19928;-76
2024/01/28 01:25:53;;;;;;;;;;;2.00;99.90;;;;;;5063178;28;19932;-76
2024/01/28 01:28:20;;;;;;;;;;;2.00;99.90;;;;;;5065451;28;19938;-76
2024/01/28 01:30:48;;;;;;;;;;;1.90;99.90;;;;;;5064780;28;19928;-75
2024/01/28 01:33:14;;;;;;;;;;;1.90;99.90;;;;;;5059107;28;19979;-77
2024/01/28 01:35:41;;;;;;;;;;;1.90;99.90;;;;;;5067360;28;20313;-77
2024/01/28 01:38:07;;;;;;;;;;;1.90;99.90;;;;;;5063033;28;20294;-77
2024/01/28 01:40:34;;;;;;;;;;;1.90;99.90;;;;;;5063171;28;19928;-77
2024/01/28 01:43:03;;;;;;;;;;;1.90;99.90;;;;;;5064942;28;19929;-76
2024/01/28 01:45:29;;;;;;;;;;;1.90;99.90;;;;;;5066806;28;19928;-76
2024/01/28 01:47:57;;;;;;;;;;;1.90;99.90;;;;;;5061598;28;19933;-75
2024/01/28 01:50:24;;;;;;;;;;;1.90;99.90;;;;;;5061446;28;20410;-75
2024/01/28 01:52:51;;;;;;;;;;;1.80;99.90;;;;;;5065818;28;19933;-75
2024/01/28 01:55:17;;;;;;;;;;;1.80;99.90;;;;;;5067000;28;19955;-75
2024/01/28 01:57:44;;;;;;;;;;;1.80;99.90;;;;;;5063084;28;19929;-75
2024/01/28 02:00:14;;;;;;;;;;;1.80;99.90;;;;;;5068015;28;19989;-76
2024/01/28 02:02:43;;;;;;;;;;;1.80;99.90;;;;;;5061512;28;19928;-75
2024/01/28 02:05:11;;;;;;;;;;;1.70;99.90;;;;;;5065236;28;19933;-76
2024/01/28 02:07:37;;;;;;;;;;;1.80;99.90;;;;;;5057725;28;19997;-76
2024/01/28 02:10:05;;;;;;;;;;;1.70;99.90;;;;;;5066488;28;19936;-76
2024/01/28 02:12:32;;;;;;;;;;;1.70;99.90;;;;;;5063113;28;19925;-76
2024/01/28 02:15:04;;;;;;;;;;;1.70;99.90;;;;;;5063803;28;20259;-76
2024/01/28 02:17:31;;;;;;;;;;;1.70;99.90;;;;;;5068392;28;20054;-76
2024/01/28 02:19:58;;;;;;;;;;;1.70;99.90;;;;;;5064349;28;19928;-76
2024/01/28 02:22:25;;;;;;;;;;;1.70;99.90;;;;;;5065510;28;19948;-76
2024/01/28 02:24:53;;;;;;;;;;;1.70;99.90;;;;;;5064131;28;19928;-77
2024/01/28 02:27:20;;;;;;;;;;;1.70;99.90;;;;;;5062217;28;19932;-76
2024/01/28 02:29:46;;;;;;;;;;;1.70;99.90;;;;;;5065638;28;20364;-76
2024/01/28 02:32:15;;;;;;;;;;;1.60;99.90;;;;;;5050149;28;19933;-76
2024/01/28 02:34:42;;;;;;;;;;;1.60;99.90;;;;;;5048591;28;19924;-76
2024/01/28 02:37:10;;;;;;;;;;;1.60;99.90;;;;;;5047341;28;19929;-76
2024/01/28 02:39:36;;;;;;;;;;;1.60;99.90;;;;;;5045352;28;20023;-76
2024/01/28 02:42:05;;;;;;;;;;;1.60;99.90;;;;;;5044296;28;19975;-77
2024/01/28 02:44:31;;;;;;;;;;;1.60;99.90;;;;;;5051264;28;19932;-76
2024/01/28 02:46:58;;;;;;;;;;;1.60;99.90;;;;;;5047805;28;19928;-77
2024/01/28 02:49:24;;;;;;;;;;;1.50;99.90;;;;;;5046615;28;19930;-75
2024/01/28 02:51:51;;;;;;;;;;;1.50;99.90;;;;;;5046310;28;19929;-76
2024/01/28 02:54:18;;;;;;;;;;;1.50;99.90;;;;;;5046455;28;20394;-75
2024/01/28 02:56:44;;;;;;;;;;;1.50;99.90;;;;;;5043624;28;19936;-78
2024/01/28 02:59:13;;;;;;;;;;;1.60;99.90;;;;;;5046939;28;19932;-76
2024/01/28 03:01:44;;;;;;;;;;;1.50;99.90;;;;;;5059699;28;20015;-76
2024/01/28 03:04:11;;;;;;;;;;;1.50;99.90;;;;;;5060804;28;19935;-76
2024/01/28 03:06:37;;;;;;;;;;;1.50;99.90;;;;;;5065909;28;19936;-77
2024/01/28 03:09:05;;;;;;;;;;;1.50;99.90;;;;;;5065834;28;19932;-75
2024/01/28 03:11:31;;;;;;;;;;;1.50;99.90;;;;;;5062860;28;20483;-76
2024/01/28 03:13:58;;;;;;;;;;;1.50;99.90;;;;;;5062733;28;19990;-76
2024/01/28 03:16:26;;;;;;;;;;;1.40;99.90;;;;;;5062586;28;19985;-76
2024/01/28 03:18:52;;;;;;;;;;;1.40;99.90;;;;;;5060745;28;19932;-76
2024/01/28 03:21:19;;;;;;;;;;;1.40;99.90;;;;;;5063067;28;19929;-76
2024/01/28 03:23:46;;;;;;;;;;;1.40;99.90;;;;;;5063401;28;19929;-76
2024/01/28 03:26:13;;;;;;;;;;;1.40;99.90;;;;;;5066894;28;19932;-76
2024/01/28 03:28:39;;;;;;;;;;;1.40;99.90;;;;;;5065087;28;20679;-78
2024/01/28 03:31:06;;;;;;;;;;;1.40;99.90;;;;;;5062691;28;19929;-76
2024/01/28 03:33:34;;;;;;;;;;;1.40;99.90;;;;;;5063315;28;20338;-76
2024/01/28 03:36:00;;;;;;;;;;;1.40;99.90;;;;;;5063291;28;20001;-76
2024/01/28 03:59:27;;;;;;;;;;;1.30;99.90;;;;;;5032296;27;19931;-77
2024/01/28 04:01:54;;;;;;;;;;;1.20;99.90;;;;;;4995458;28;20341;-77
2024/01/28 04:04:21;;;;;;;;;;;1.20;99.90;;;;;;4994066;28;19938;-77
2024/01/28 04:06:47;;;;;;;;;;;1.20;99.90;;;;;;4998506;28;19934;-77
2024/01/28 04:09:14;;;;;;;;;;;1.20;99.90;;;;;;4998538;28;20372;-77
2024/01/28 04:11:40;;;;;;;;;;;1.20;99.90;;;;;;4997816;28;19950;-77
2024/01/28 04:14:07;;;;;;;;;;;1.20;99.90;;;;;;4997150;28;19936;-77
2024/01/28 04:16:35;;;;;;;;;;;1.10;99.90;;;;;;5000184;28;19952;-77
2024/01/28 04:19:01;;;;;;;;;;;1.20;99.90;;;;;;5000134;28;20268;-77
2024/01/28 04:21:28;;;;;;;;;;;1.20;99.90;;;;;;5000364;28;19934;-75
2024/01/28 04:23:56;;;;;;;;;;;1.10;99.90;;;;;;5001336;28;19953;-77
2024/01/28 04:26:23;;;;;;;;;;;1.10;99.90;;;;;;5001463;28;19933;-77
2024/01/28 04:28:49;;;;;;;;;;;1.10;99.90;;;;;;4998549;28;19936;-77
2024/01/28 04:31:16;;;;;;;;;;;1.10;99.90;;;;;;4995794;28;19934;-77
2024/01/28 04:33:44;;;;;;;;;;;1.10;99.90;;;;;;4999137;28;20347;-77
2024/01/28 04:36:11;;;;;;;;;;;1.10;99.90;;;;;;4994352;28;19929;-77
2024/01/28 04:38:37;;;;;;;;;;;1.10;99.90;;;;;;5000071;28;19944;-77
2024/01/28 04:41:04;;;;;;;;;;;1.10;99.90;;;;;;4997979;28;19936;-77
2024/01/28 04:43:31;;;;;;;;;;;1.00;99.90;;;;;;4996520;28;19933;-77
2024/01/28 04:45:57;;;;;;;;;;;1.00;99.90;;;;;;4997415;28;20777;-77
2024/01/28 04:48:24;;;;;;;;;;;1.00;99.90;;;;;;4993219;28;20182;-77
2024/01/28 04:50:52;;;;;;;;;;;1.00;99.90;;;;;;4993606;28;20480;-77
2024/01/28 04:53:19;;;;;;;;;;;1.00;99.90;;;;;;4994728;28;19929;-77
2024/01/28 04:55:45;;;;;;;;;;;1.00;99.90;;;;;;4997087;28;19929;-77
2024/01/28 04:58:12;;;;;;;;;;;1.00;99.90;;;;;;4994878;28;19937;-78
2024/01/28 05:00:38;;;;;;;;;;;1.00;99.90;;;;;;4980602;28;19945;-77
2024/01/28 05:03:05;;;;;;;;;;;1.00;99.90;;;;;;4980302;28;19937;-77
2024/01/28 05:05:32;;;;;;;;;;;1.00;99.90;;;;;;4980526;28;19930;-78
2024/01/28 05:08:00;;;;;;;;;;;1.00;99.90;;;;;;4977272;28;19930;-77
2024/01/28 05:10:27;;;;;;;;;;;1.00;99.90;;;;;;4983205;28;19930;-77
2024/01/28 05:12:54;;;;;;;;;;;1.00;99.90;;;;;;4983218;28;20147;-77
2024/01/28 05:15:20;;;;;;;;;;;1.00;99.90;;;;;;4982790;28;20309;-76
2024/01/28 05:17:47;;;;;;;;;;;1.00;99.90;;;;;;4986047;28;19929;-77
2024/01/28 05:20:14;;;;;;;;;;;0.90;99.90;;;;;;4983554;28;19933;-78
2024/01/28 05:22:41;;;;;;;;;;;0.90;99.90;;;;;;4987301;28;20542;-77
2024/01/28 05:25:11;;;;;;;;;;;0.90;99.90;;;;;;4982190;28;19929;-76
2024/01/28 05:27:37;;;;;;;;;;;0.90;99.90;;;;;;4984503;28;19937;-77
2024/01/28 05:30:05;;;;;;;;;;;0.90;99.90;;;;;;4987091;28;20301;-77
2024/01/28 05:32:31;;;;;;;;;;;0.90;99.90;;;;;;4979178;28;20025;-77
2024/01/28 05:35:01;;;;;;;;;;;0.90;99.90;;;;;;4982343;28;19930;-76
2024/01/28 05:37:28;;;;;;;;;;;0.80;99.90;;;;;;4979402;28;19934;-77
2024/01/28 05:39:54;;;;;;;;;;;0.80;99.90;;;;;;4981806;28;20633;-76
2024/01/28 05:42:22;;;;;;;;;;;0.80;99.90;;;;;;4986808;28;20532;-76
2024/01/28 05:44:49;;;;;;;;;;;0.80;99.90;;;;;;4982058;28;20653;-77
2024/01/28 05:47:15;;;;;;;;;;;0.80;99.90;;;;;;4982848;28;19929;-77
2024/01/28 05:49:42;;;;;;;;;;;0.80;99.90;;;;;;4984361;28;19930;-77
2024/01/28 05:52:08;;;;;;;;;;;0.80;99.90;;;;;;4980547;28;19940;-77
2024/01/28 05:54:37;;;;;;;;;;;0.80;99.90;;;;;;4978840;28;19933;-77
2024/01/28 05:57:03;;;;;;;;;;;0.80;99.90;;;;;;4981485;28;19937;-77
2024/01/28 05:59:31;;;;;;;;;;;0.80;99.90;;;;;;4985285;28;20290;-77
2024/01/28 06:01:58;;;;;;;;;;;0.70;99.90;;;;;;4981052;28;20474;-76
2024/01/28 06:04:24;;;;;;;;;;;0.70;99.90;;;;;;4980398;28;19941;-77
2024/01/28 06:06:51;;;;;;;;;;;0.70;99.90;;;;;;4980768;28;19933;-77
2024/01/28 06:09:18;;;;;;;;;;;0.70;99.90;;;;;;4981093;28;19934;-77
2024/01/28 06:11:44;;;;;;;;;;;0.70;99.90;;;;;;4979017;28;19930;-77
2024/01/28 06:14:11;;;;;;;;;;;0.70;99.90;;;;;;4979371;28;20028;-77
2024/01/28 06:16:39;;;;;;;;;;;0.70;99.90;;;;;;4979191;28;20520;-77
2024/01/28 06:19:06;;;;;;;;;;;0.70;99.90;;;;;;4981100;28;19936;-76
2024/01/28 06:21:32;;;;;;;;;;;0.70;99.90;;;;;;4982710;28;19941;-76
2024/01/28 06:23:59;;;;;;;;;;;0.70;99.90;;;;;;4977872;28;20003;-77
2024/01/28 06:26:26;;;;;;;;;;;0.70;99.90;;;;;;4981338;28;20463;-75
2024/01/28 06:28:52;;;;;;;;;;;0.60;99.90;;;;;;4978956;28;19937;-76
2024/01/28 06:31:20;;;;;;;;;;;0.60;99.90;;;;;;4982339;28;19941;-76
2024/01/28 06:33:48;;;;;;;;;;;0.60;99.90;;;;;;4983590;28;19973;-77
2024/01/28 06:36:21;;;;;;;;;;;0.60;99.90;;;;;;4983627;28;19941;-77
2024/01/28 06:38:47;;;;;;;;;;;0.60;99.90;;;;;;4974067;28;19929;-77
2024/01/28 06:41:14;;;;;;;;;;;0.60;99.90;;;;;;4978630;28;19930;-77
2024/01/28 06:43:41;;;;;;;;;;;0.60;99.90;;;;;;4981853;28;19934;-77
2024/01/28 06:46:07;;;;;;;;;;;0.60;99.90;;;;;;4980396;28;19938;-76
2024/01/28 06:48:34;;;;;;;;;;;0.60;99.90;;;;;;4978367;28;20592;-77
2024/01/28 06:51:05;;;;;;;;;;;0.50;99.90;;;;;;4977617;28;19957;-77
2024/01/28 06:53:32;;;;;;;;;;;0.50;99.90;;;;;;4982881;28;19988;-77
2024/01/28 06:55:58;;;;;;;;;;;0.60;99.90;;;;;;4979013;28;19933;-76
2024/01/28 06:58:25;;;;;;;;;;;0.50;99.90;;;;;;4981445;28;19953;-76
2024/01/28 07:00:51;;;;;;;;;;;0.50;99.90;;;;;;4978866;28;20537;-77
2024/01/28 07:03:18;;;;;;;;;;;0.50;99.90;;;;;;4982571;28;19933;-76
2024/01/28 07:05:45;;;;;;;;;;;0.50;99.90;;;;;;4978967;28;19930;-77
2024/01/28 07:08:13;;;;;;;;;;;0.50;99.90;;;;;;4980099;28;19938;-76
2024/01/28 07:10:39;;;;;;;;;;;0.50;99.90;;;;;;4980457;28;19933;-76
2024/01/28 07:13:07;;;;;;;;;;;0.50;99.90;;;;;;4981797;28;19937;-76
2024/01/28 07:15:34;;;;;;;;;;;0.50;99.90;;;;;;4982477;28;20008;-76
2024/01/28 07:18:01;;;;;;;;;;;0.50;99.90;;;;;;4978183;28;20294;-76
2024/01/28 07:20:27;;;;;;;;;;;0.50;99.90;;;;;;4981982;28;19936;-77
2024/01/28 07:22:54;;;;;;;;;;;0.50;99.90;;;;;;4980590;28;19929;-76
2024/01/28 07:25:22;;;;;;;;;;;0.50;99.90;;;;;;4981818;28;19936;-77
2024/01/28 07:27:48;;;;;;;;;;;0.40;99.90;;;;;;4980551;28;19930;-77
2024/01/28 07:30:15;;;;;;;;;;;0.40;99.90;;;;;;4979890;28;20378;-77
2024/01/28 07:32:42;;;;;;;;;;;0.40;99.90;;;;;;4982598;28;19958;-76
2024/01/28 07:35:08;;;;;;;;;;;0.40;99.90;;;;;;4977294;28;19937;-76
2024/01/28 07:37:35;;;;;;;;;;;0.40;99.90;;;;;;4976482;28;20578;-76
2024/01/28 07:40:03;;;;;;;;;;;0.40;99.90;;;;;;4979708;28;19934;-78
2024/01/28 07:42:32;;;;;;;;;;;0.40;99.90;;;;;;4978623;28;19934;-77
2024/01/28 07:44:58;;;;;;;;;;;0.40;99.90;;;;;;4977891;28;19936;-77
2024/01/28 07:47:25;;;;;;;;;;;0.40;99.90;;;;;;4979413;28;20365;-77
2024/01/28 07:49:51;;;;;;;;;;;0.40;99.90;;;;;;4974572;28;20433;-76
2024/01/28 07:52:18;;;;;;;;;;;0.40;99.90;;;;;;4982065;28;19934;-76
2024/01/28 07:54:45;;;;;;;;;;;0.30;99.90;;;;;;4979586;28;19930;-77
2024/01/28 07:57:11;;;;;;;;;;;0.40;99.90;;;;;;4977803;28;19934;-76
2024/01/28 07:59:39;;;;;;;;;;;0.30;99.90;;;;;;4980288;28;19941;-76
2024/01/28 08:02:05;;;;;;;;;;;0.30;99.90;;;;;;4975152;28;19930;-77
2024/01/28 08:04:32;;;;;;;;;;;0.30;99.90;;;;;;4974905;28;19929;-77
2024/01/28 08:06:59;;;;;;;;;;;0.30;99.90;;;;;;4976703;28;20539;-77
2024/01/28 08:09:27;;;;;;;;;;;0.30;99.90;;;;;;4973763;28;20428;-76
2024/01/28 08:11:54;;;;;;;;;;;0.30;99.90;;;;;;4981015;28;19930;-76
2024/01/28 08:14:26;;;;;;;;;;;0.30;99.90;;;;;;4981278;28;19974;-76
2024/01/28 08:16:54;;;;;;;;;;;0.30;99.90;;;;;;4975709;28;20368;-76
2024/01/28 08:19:21;;;;;;;;;;;0.30;99.90;;;;;;4981531;28;20492;-77
2024/01/28 08:21:48;;;;;;;;;;;0.30;99.90;;;;;;4978238;28;19970;-77
2024/01/28 08:24:15;;;;;;;;;;;0.30;99.90;;;;;;4976662;28;19930;-76
2024/01/28 08:26:41;;;;;;;;;;;0.30;99.90;;;;;;4978501;28;19940;-77
2024/01/28 08:29:08;;;;;;;;;;;0.30;99.90;;;;;;4971555;28;19930;-76
2024/01/28 08:31:34;;;;;;;;;;;0.30;99.90;;;;;;4975305;28;19937;-77
2024/01/28 08:34:02;;;;;;;;;;;0.30;99.90;;;;;;4974868;28;19937;-77
2024/01/28 08:36:29;;;;;;;;;;;0.30;99.90;;;;;;4983159;28;20037;-78
2024/01/28 08:38:55;;;;;;;;;;;0.20;99.90;;;;;;4982464;28;20691;-76
2024/01/28 08:41:22;;;;;;;;;;;0.30;99.90;;;;;;4982585;28;19930;-76
2024/01/28 08:43:49;;;;;;;;;;;0.30;99.90;;;;;;4979539;28;20342;-77
2024/01/28 08:46:16;;;;;;;;;;;0.30;99.90;;;;;;4983103;28;20131;-77
2024/01/28 08:48:42;;;;;;;;;;;0.30;99.90;;;;;;4974547;28;20292;-76
2024/01/28 08:51:10;;;;;;;;;;;0.30;99.90;;;;;;4978479;28;19934;-77
2024/01/28 08:53:37;;;;;;;;;;;0.30;99.90;;;;;;4979447;28;20290;-77
2024/01/28 08:56:03;;;;;;;;;;;0.20;99.90;;;;;;4976773;28;19933;-76
2024/01/28 08:58:30;;;;;;;;;;;0.30;99.90;;;;;;4980290;28;22103;-77
2024/01/28 09:00:57;;;;;;;;;;;0.20;99.90;;;;;;4982849;28;19965;-77
2024/01/28 09:03:23;;;;;;;;;;;0.20;99.90;;;;;;4983771;28;20348;-77
2024/01/28 09:05:50;;;;;;;;;;;0.20;99.90;;;;;;4982001;28;19933;-77
2024/01/28 09:08:18;;;;;;;;;;;0.20;99.90;;;;;;4981611;28;19936;-77
2024/01/28 09:10:45;;;;;;;;;;;0.20;99.90;;;;;;4980593;28;19937;-78
2024/01/28 09:13:12;;;;;;;;;;;0.20;99.90;;;;;;4980503;28;20483;-77
2024/01/28 09:15:38;;;;;;;;;;;0.20;99.90;;;;;;4980576;28;20353;-77
2024/01/28 09:18:05;;;;;;;;;;;0.20;99.90;;;;;;4980021;28;19930;-75
2024/01/28 09:20:31;;;;;;;;;;;0.30;99.90;;;;;;4981270;28;20226;-78
2024/01/28 09:22:58;;;;;;;;;;;0.20;99.90;;;;;;4979999;28;19934;-78
2024/01/28 09:25:28;;;;;;;;;;;0.20;99.90;;;;;;4981027;28;19930;-76
2024/01/28 09:27:55;;;;;;;;;;;0.30;99.90;;;;;;4980004;28;20024;-77
2024/01/28 09:30:21;;;;;;;;;;;0.30;99.90;;;;;;4978568;28;19937;-77
2024/01/28 09:32:48;;;;;;;;;;;0.30;99.90;;;;;;4980930;28;19930;-77
2024/01/28 09:35:15;;;;;;;;;;;0.30;99.90;;;;;;4980303;28;19930;-77
2024/01/28 09:37:41;;;;;;;;;;;0.30;99.90;;;;;;4979539;28;19930;-78
2024/01/28 09:40:08;;;;;;;;;;;0.30;99.90;;;;;;4975612;28;20610;-75
2024/01/28 09:42:43;;;;;;;;;;;0.30;99.90;;;;;;4980646;28;19930;-77
2024/01/28 09:45:09;;;;;;;;;;;0.30;99.90;;;;;;4978765;28;19930;-75
2024/01/28 09:47:36;;;;;;;;;;;0.30;99.90;;;;;;4973551;28;19993;-77
2024/01/28 09:50:04;;;;;;;;;;;0.30;99.90;;;;;;4970858;28;20587;-74
2024/01/28 09:52:30;;;;;;;;;;;0.30;99.90;;;;;;4975707;28;19940;-74
2024/01/28 09:54:57;;;;;;;;;;;0.30;99.90;;;;;;4977799;28;19992;-75
2024/01/28 09:57:25;;;;;;;;;;;0.40;99.90;;;;;;4974043;28;19933;-75
2024/01/28 09:59:54;;;;;;;;;;;0.30;99.90;;;;;;4975933;28;19941;-75
2024/01/28 10:02:20;;;;;;;;;;;0.30;99.90;;;;;;4975633;28;19934;-75
2024/01/28 10:04:47;;;;;;;;;;;0.40;99.90;;;;;;4982348;28;20040;-75
2024/01/28 10:07:15;;;;;;;;;;;0.40;99.90;;;;;;4978312;28;19930;-76
2024/01/28 10:09:41;;;;;;;;;;;0.40;99.90;;;;;;4976936;28;20289;-75
2024/01/28 10:12:09;;;;;;;;;;;0.50;99.90;;;;;;4978206;28;20837;-77
2024/01/28 10:14:36;;;;;;;;;;;0.50;99.90;;;;;;4976122;28;19984;-73
2024/01/28 10:17:04;;;;;;;;;;;0.60;99.90;;;;;;4978732;28;19981;-74
2024/01/28 10:19:30;;;;;;;;;;;0.70;99.90;;;;;;4976996;28;19992;-74
2024/01/28 10:21:59;;;;;;;;;;;0.70;99.90;;;;;;4978524;28;19964;-75
2024/01/28 10:24:25;;;;;;;;;;;0.80;99.90;;;;;;4977598;28;20645;-74
2024/01/28 10:26:52;;;;;;;;;;;0.90;99.90;;;;;;4974051;28;19934;-75
2024/01/28 10:29:20;;;;;;;;;;;0.90;99.90;;;;;;4977468;28;19930;-74
2024/01/28 10:31:47;;;;;;;;;;;1.00;99.90;;;;;;4977669;28;20547;-75
2024/01/28 10:34:15;;;;;;;;;;;1.00;99.90;;;;;;4963959;28;19937;-75
2024/01/28 10:36:46;;;;;;;;;;;1.10;99.90;;;;;;4975072;28;20305;-75
2024/01/28 10:39:15;;;;;;;;;;;1.10;99.90;;;;;;4973844;28;19930;-77
2024/01/28 10:41:43;;;;;;;;;;;1.20;99.90;;;;;;4978103;28;19945;-77
2024/01/28 10:44:10;;;;;;;;;;;1.20;99.90;;;;;;4975220;28;19936;-76
2024/01/28 10:46:37;;;;;;;;;;;1.20;99.90;;;;;;4973513;28;19930;-75
2024/01/28 10:49:05;;;;;;;;;;;1.30;99.90;;;;;;4967974;28;19993;-77
2024/01/28 10:51:35;;;;;;;;;;;1.40;99.90;;;;;;4981593;28;20004;-77
2024/01/28 10:54:03;;;;;;;;;;;3.60;99.90;;;;;;4986595;28;19949;-77
2024/01/28 10:56:29;;;;;;;;;;;1.50;99.90;;;;;;4987853;28;19984;-77
2024/01/28 10:58:57;;;;;;;;;;;1.60;99.90;;;;;;4983632;28;19930;-77
2024/01/28 11:01:24;;;;;;;;;;;1.60;99.90;;;;;;4986348;28;19930;-77
2024/01/28 11:03:51;;;;;;;;;;;3.50;99.90;;;;;;4986778;28;19936;-78
2024/01/28 11:06:17;;;;;;;;;;;1.80;99.90;;;;;;4985904;28;19929;-77
2024/01/28 11:08:46;;;;;;;;;;;1.90;99.90;;;;;;4986820;28;19966;-77
2024/01/28 11:11:12;;;;;;;;;;;2.00;99.90;;;;;;4984183;28;19959;-77
2024/01/28 11:13:39;;;;;;;;;;;2.00;99.90;;;;;;4982296;28;19941;-77
2024/01/28 11:16:06;;;;;;;;;;;2.10;99.90;;;;;;4978690;28;19936;-77
2024/01/28 11:18:33;;;;;;;;;;;2.20;99.90;;;;;;4983387;28;19941;-77
2024/01/28 11:21:09;;;;;;;;;;;2.30;99.90;;;;;;4981662;28;19973;-78
2024/01/28 11:23:41;;;;;;;;;;;2.40;99.90;;;;;;4980466;28;19930;-77
2024/01/28 11:26:14;;;;;;;;;;;2.40;99.90;;;;;;4983996;28;19934;-78
2024/01/28 11:28:46;;;;;;;;;;;2.40;99.90;;;;;;4983830;28;19937;-77
2024/01/28 11:31:20;;;;;;;;;;;2.50;99.90;;;;;;4982569;28;19940;-77
2024/01/28 11:33:47;;;;;;;;;;;2.60;99.90;;;;;;4988329;28;19925;-77
2024/01/28 11:36:15;;;;;;;;;;;2.60;99.90;;;;;;4982475;28;19929;-78
2024/01/28 11:38:43;;;;;;;;;;;2.60;99.90;;;;;;4983520;28;19929;-76
2024/01/28 11:41:11;;;;;;;;;;;2.60;99.90;;;;;;4981379;28;19934;-77
2024/01/28 11:43:39;;;;;;;;;;;2.70;99.90;;;;;;4984339;28;19929;-77
2024/01/28 11:46:05;;;;;;;;;;;2.70;99.90;;;;;;4981924;28;19934;-77
2024/01/28 11:48:32;;;;;;;;;;;2.80;99.90;;;;;;4978853;28;19930;-78
2024/01/28 11:50:58;;;;;;;;;;;2.80;99.90;;;;;;4980031;28;19934;-78
2024/01/28 11:53:26;;;;;;;;;;;2.80;99.90;;;;;;4980699;28;19930;-77
2024/01/28 11:55:53;;;;;;;;;;;2.90;99.90;;;;;;4982011;28;19936;-78
2024/01/28 11:58:20;;;;;;;;;;;2.90;99.90;;;;;;4981771;28;19930;-78
2024/01/28 12:00:48;;;;;;;;;;;3.00;99.90;;;;;;4985959;28;19930;-78
2024/01/28 12:03:14;;;;;;;;;;;3.00;99.90;;;;;;4984724;28;20528;-78
2024/01/28 12:05:41;;;;;;;;;;;5.00;99.90;;;;;;4984264;28;19934;-77
2024/01/28 12:08:09;;;;;;;;;;;3.20;99.90;;;;;;4981872;28;19930;-77
2024/01/28 12:10:36;;;;;;;;;;;3.20;99.90;;;;;;4984456;28;20526;-77
2024/01/28 12:13:02;;;;;;;;;;;3.30;99.90;;;;;;4988358;28;19934;-77
2024/01/28 12:15:29;;;;;;;;;;;3.40;99.90;;;;;;4988834;28;19984;-77
2024/01/28 12:17:58;;;;;;;;;;;3.50;99.90;;;;;;4987553;28;19937;-77
2024/01/28 12:20:24;;;;;;;;;;;3.50;99.90;;;;;;4986432;28;19989;-77
2024/01/28 12:22:51;;;;;;;;;;;3.60;99.90;;;;;;4988286;28;19933;-77
2024/01/28 12:25:21;;;;;;;;;;;3.70;99.90;;;;;;4989512;28;19930;-78
2024/01/28 12:27:49;;;;;;;;;;;3.70;99.90;;;;;;4990527;28;20278;-78
2024/01/28 12:30:17;;;;;;;;;;;3.80;99.90;;;;;;4983900;28;19933;-77
2024/01/28 12:32:44;;;;;;;;;;;3.90;99.90;;;;;;4992160;28;19934;-77
2024/01/28 12:35:12;;;;;;;;;;;3.90;99.90;;;;;;4983171;28;19934;-79
2024/01/28 12:37:39;;;;;;;;;;;4.00;99.90;;;;;;4972367;28;19934;-75
2024/01/28 12:40:06;;;;;;;;;;;4.00;99.90;;;;;;4977678;28;20034;-74
2024/01/28 12:42:34;;;;;;;;;;;4.10;99.90;;;;;;4981274;28;19937;-76
2024/01/28 12:45:01;;;;;;;;;;;4.20;99.90;;;;;;4984859;28;19929;-75
2024/01/28 12:47:27;;;;;;;;;;;4.30;99.90;;;;;;4978524;28;20234;-74
2024/01/28 12:49:54;;;;;;;;;;;4.30;99.90;;;;;;4980612;28;19949;-75
2024/01/28 12:52:22;;;;;;;;;;;4.40;99.90;;;;;;4975658;28;19930;-75
2024/01/28 12:54:48;;;;;;;;;;;4.50;99.90;;;;;;4979732;28;19930;-74
2024/01/28 12:57:15;;;;;;;;;;;4.50;99.90;;;;;;4979727;28;20552;-75
2024/01/28 12:59:41;;;;;;;;;;;4.60;99.90;;;;;;4981352;28;20040;-75
2024/01/28 13:02:09;;;;;;;;;;;4.60;99.90;;;;;;4978501;28;19977;-73
2024/01/28 13:04:35;;;;;;;;;;;4.70;99.90;;;;;;4980626;28;19930;-77
2024/01/28 13:07:02;;;;;;;;;;;4.80;99.90;;;;;;4984427;28;19933;-77
2024/01/28 13:09:30;;;;;;;;;;;4.80;99.90;;;;;;4981352;28;19940;-77
2024/01/28 13:11:57;;;;;;;;;;;4.80;99.90;;;;;;4982719;28;19937;-77
2024/01/28 13:14:23;;;;;;;;;;;4.90;99.90;;;;;;4978599;28;19929;-78
2024/01/28 13:16:51;;;;;;;;;;;4.90;99.90;;;;;;4986551;28;19940;-77
2024/01/28 13:19:18;;;;;;;;;;;4.90;99.90;;;;;;4979157;28;19929;-77
2024/01/28 13:21:44;;;;;;;;;;;5.00;99.90;;;;;;4979419;28;19952;-77
2024/01/28 13:24:11;;;;;;;;;;;5.00;99.90;;;;;;4983404;28;19934;-77
2024/01/28 13:26:39;;;;;;;;;;;5.10;99.90;;;;;;4984222;28;20517;-77
2024/01/28 13:29:05;;;;;;;;;;;5.10;99.90;;;;;;4984972;28;19937;-78
2024/01/28 13:31:32;;;;;;;;;;;5.20;99.90;;;;;;4985158;28;19961;-76
2024/01/28 13:33:58;;;;;;;;;;;5.20;99.90;;;;;;4982841;28;19929;-77
2024/01/28 13:36:25;;;;;;;;;;;5.20;99.90;;;;;;4983216;28;20010;-77
2024/01/28 13:38:51;;;;;;;;;;;5.30;99.90;;;;;;4986036;28;19958;-77
2024/01/28 13:41:18;;;;;;;;;;;5.30;99.90;;;;;;4980708;28;19934;-77
2024/01/28 13:43:46;;;;;;;;;;;5.40;99.90;;;;;;4981281;28;19933;-77
2024/01/28 13:46:12;;;;;;;;;;;5.40;99.90;;;;;;4980751;28;19934;-75
2024/01/28 13:48:39;;;;;;;;;;;5.40;99.90;;;;;;4981209;28;19934;-76
2024/01/28 13:51:06;;;;;;;;;;;5.50;99.90;;;;;;4981353;28;19937;-77
2024/01/28 13:53:32;;;;;;;;;;;5.50;99.90;;;;;;4983620;28;19934;-77
2024/01/28 13:55:59;;;;;;;;;;;5.50;99.90;;;;;;4982693;28;19940;-76
2024/01/28 13:58:25;;;;;;;;;;;5.60;99.90;;;;;;4979079;28;19934;-77
2024/01/28 14:00:53;;;;;;;;;;;5.60;99.90;;;;;;4980241;28;19934;-76
2024/01/28 14:03:20;;;;;;;;;;;5.60;99.90;;;;;;4979316;28;19940;-77
2024/01/28 14:05:46;;;;;;;;;;;5.60;99.90;;;;;;4982409;28;19933;-77
2024/01/28 14:08:13;;;;;;;;;;;5.60;99.90;;;;;;4979372;28;19936;-76
2024/01/28 14:10:40;;;;;;;;;;;5.70;99.90;;;;;;4979081;28;19964;-76
2024/01/28 14:13:06;;;;;;;;;;;5.70;99.90;;;;;;4984493;28;20279;-77
2024/01/28 14:15:37;;;;;;;;;;;5.70;99.90;;;;;;4981150;28;19981;-77
2024/01/28 14:18:06;;;;;;;;;;;5.80;99.90;;;;;;4982728;28;20027;-76
2024/01/28 14:20:32;;;;;;;;;;;5.70;99.90;;;;;;4980930;28;20926;-76
2024/01/28 14:22:59;;;;;;;;;;;5.80;99.90;;;;;;4976829;28;20462;-77
2024/01/28 14:25:25;;;;;;;;;;;5.80;99.90;;;;;;4977305;28;20572;-76
2024/01/28 14:27:52;;;;;;;;;;;5.80;99.90;;;;;;4978968;28;19985;-77
2024/01/28 14:30:18;;;;;;;;;;;5.80;99.90;;;;;;4983367;28;20003;-76
2024/01/28 14:32:47;;;;;;;;;;;5.80;99.90;;;;;;4983174;28;19976;-76
2024/01/28 14:35:15;;;;;;;;;;;5.80;99.90;;;;;;4985344;28;19944;-76
2024/01/28 14:37:42;;;;;;;;;;;5.80;99.90;;;;;;4981142;28;20044;-76
2024/01/28 14:40:09;;;;;;;;;;;5.80;99.90;;;;;;4977615;28;19933;-76
2024/01/28 14:42:35;;;;;;;;;;;5.80;99.90;;;;;;4980438;28;19944;-76
2024/01/28 14:45:02;;;;;;;;;;;5.70;99.90;;;;;;4981249;28;19975;-76
2024/01/28 14:47:29;;;;;;;;;;;5.70;99.90;;;;;;4974473;28;19929;-75
2024/01/28 14:49:56;;;;;;;;;;;5.70;99.90;;;;;;4978566;28;19983;-76